sensor_id;sensor_type;location;lat;lon;timestamp;P1;durP1;ratioP1;P2;durP2;ratioP2
48516;SDS011;34310;51.904;4.256;2022-12-13T00:01:27;11.65;;;9.20;;
48516;SDS011;34310;51.904;4.256;2022-12-13T00:03:56;11.43;;;8.95;;
48516;SDS011;34310;51.904;4.256;2022-12-13T00:06:26;11.82;;;9.30;;
48516;SDS011;34310;51.904;4.256;2022-12-13T00:08:54;12.60;;;9.00;;
48516;SDS011;34310;51.904;4.256;2022-12-13T00:11:22;13.93;;;9.23;;
48516;SDS011;34310;51.904;4.256;2022-12-13T00:13:49;12.63;;;9.23;;
48516;SDS011;34310;51.904;4.256;2022-12-13T00:16:17;11.18;;;8.48;;
48516;SDS011;34310;51.904;4.256;2022-12-13T00:18:50;11.75;;;8.82;;
48516;SDS011;34310;51.904;4.256;2022-12-13T00:21:23;12.23;;;9.82;;
48516;SDS011;34310;51.904;4.256;2022-12-13T00:23:52;12.38;;;9.20;;
48516;SDS011;34310;51.904;4.256;2022-12-13T00:26:25;12.55;;;9.25;;
48516;SDS011;34310;51.904;4.256;2022-12-13T00:29:00;11.25;;;8.63;;
48516;SDS011;34310;51.904;4.256;2022-12-13T00:31:30;10.88;;;9.13;;
48516;SDS011;34310;51.904;4.256;2022-12-13T00:34:17;11.05;;;8.70;;
48516;SDS011;34310;51.904;4.256;2022-12-13T00:36:45;12.15;;;8.88;;
48516;SDS011;34310;51.904;4.256;2022-12-13T00:39:13;10.60;;;8.15;;
48516;SDS011;34310;51.904;4.256;2022-12-13T00:41:42;12.02;;;8.55;;
48516;SDS011;34310;51.904;4.256;2022-12-13T00:44:10;10.15;;;8.07;;
48516;SDS011;34310;51.904;4.256;2022-12-13T00:46:39;10.95;;;8.70;;
48516;SDS011;34310;51.904;4.256;2022-12-13T00:49:08;9.60;;;7.60;;
48516;SDS011;34310;51.904;4.256;2022-12-13T00:51:38;11.63;;;8.13;;
48516;SDS011;34310;51.904;4.256;2022-12-13T00:54:05;11.13;;;8.10;;
48516;SDS011;34310;51.904;4.256;2022-12-13T00:56:33;9.43;;;7.85;;
48516;SDS011;34310;51.904;4.256;2022-12-13T00:59:02;12.73;;;7.82;;
48516;SDS011;34310;51.904;4.256;2022-12-13T01:01:31;8.48;;;7.13;;
48516;SDS011;34310;51.904;4.256;2022-12-13T01:04:00;10.27;;;7.93;;
48516;SDS011;34310;51.904;4.256;2022-12-13T01:06:30;9.70;;;7.63;;
48516;SDS011;34310;51.904;4.256;2022-12-13T01:09:01;10.27;;;8.00;;
48516;SDS011;34310;51.904;4.256;2022-12-13T01:11:30;11.55;;;8.45;;
48516;SDS011;34310;51.904;4.256;2022-12-13T01:13:58;11.10;;;7.88;;
48516;SDS011;34310;51.904;4.256;2022-12-13T01:16:25;10.75;;;8.00;;
48516;SDS011;34310;51.904;4.256;2022-12-13T01:18:53;9.27;;;7.47;;
48516;SDS011;34310;51.904;4.256;2022-12-13T01:21:21;10.88;;;7.82;;
48516;SDS011;34310;51.904;4.256;2022-12-13T01:23:49;9.70;;;7.32;;
48516;SDS011;34310;51.904;4.256;2022-12-13T01:26:19;9.05;;;6.95;;
48516;SDS011;34310;51.904;4.256;2022-12-13T01:28:46;9.52;;;7.50;;
48516;SDS011;34310;51.904;4.256;2022-12-13T01:31:15;10.23;;;7.30;;
48516;SDS011;34310;51.904;4.256;2022-12-13T01:33:45;8.80;;;7.22;;
48516;SDS011;34310;51.904;4.256;2022-12-13T01:36:17;8.23;;;6.80;;
48516;SDS011;34310;51.904;4.256;2022-12-13T01:38:53;10.07;;;7.57;;
48516;SDS011;34310;51.904;4.256;2022-12-13T01:41:24;8.95;;;7.18;;
48516;SDS011;34310;51.904;4.256;2022-12-13T01:43:55;9.57;;;7.18;;
48516;SDS011;34310;51.904;4.256;2022-12-13T01:46:29;8.88;;;7.22;;
48516;SDS011;34310;51.904;4.256;2022-12-13T01:51:50;7.85;;;6.88;;
48516;SDS011;34310;51.904;4.256;2022-12-13T01:54:26;9.30;;;6.90;;
48516;SDS011;34310;51.904;4.256;2022-12-13T01:56:59;9.80;;;7.28;;
48516;SDS011;34310;51.904;4.256;2022-12-13T01:59:32;8.65;;;6.82;;
48516;SDS011;34310;51.904;4.256;2022-12-13T02:02:02;7.90;;;6.90;;
48516;SDS011;34310;51.904;4.256;2022-12-13T02:07:17;8.90;;;7.00;;
48516;SDS011;34310;51.904;4.256;2022-12-13T02:09:51;8.90;;;6.95;;
48516;SDS011;34310;51.904;4.256;2022-12-13T02:12:27;8.63;;;6.57;;
48516;SDS011;34310;51.904;4.256;2022-12-13T02:15:04;8.35;;;6.53;;
48516;SDS011;34310;51.904;4.256;2022-12-13T02:20:45;8.55;;;6.78;;
48516;SDS011;34310;51.904;4.256;2022-12-13T02:37:25;8.73;;;7.03;;
48516;SDS011;34310;51.904;4.256;2022-12-13T02:40:46;8.88;;;6.78;;
48516;SDS011;34310;51.904;4.256;2022-12-13T02:43:02;8.48;;;7.00;;
48516;SDS011;34310;51.904;4.256;2022-12-13T02:45:38;8.65;;;6.43;;
48516;SDS011;34310;51.904;4.256;2022-12-13T02:48:12;8.32;;;6.57;;
48516;SDS011;34310;51.904;4.256;2022-12-13T02:50:45;8.95;;;7.07;;
48516;SDS011;34310;51.904;4.256;2022-12-13T02:53:13;7.78;;;6.50;;
48516;SDS011;34310;51.904;4.256;2022-12-13T02:55:42;8.32;;;6.50;;
48516;SDS011;34310;51.904;4.256;2022-12-13T02:58:13;8.45;;;6.63;;
48516;SDS011;34310;51.904;4.256;2022-12-13T03:12:10;7.97;;;6.43;;
48516;SDS011;34310;51.904;4.256;2022-12-13T03:17:59;9.13;;;6.88;;
48516;SDS011;34310;51.904;4.256;2022-12-13T03:20:30;8.15;;;6.70;;
48516;SDS011;34310;51.904;4.256;2022-12-13T03:22:57;7.40;;;5.97;;
48516;SDS011;34310;51.904;4.256;2022-12-13T03:25:26;9.23;;;6.72;;
48516;SDS011;34310;51.904;4.256;2022-12-13T03:27:58;7.93;;;6.60;;
48516;SDS011;34310;51.904;4.256;2022-12-13T03:30:27;8.60;;;6.95;;
48516;SDS011;34310;51.904;4.256;2022-12-13T03:32:56;9.27;;;6.95;;
48516;SDS011;34310;51.904;4.256;2022-12-13T03:35:23;8.65;;;6.85;;
48516;SDS011;34310;51.904;4.256;2022-12-13T03:38:09;7.95;;;5.95;;
48516;SDS011;34310;51.904;4.256;2022-12-13T03:40:48;8.88;;;6.97;;
48516;SDS011;34310;51.904;4.256;2022-12-13T03:43:17;8.57;;;6.80;;
48516;SDS011;34310;51.904;4.256;2022-12-13T03:45:47;8.07;;;6.40;;
48516;SDS011;34310;51.904;4.256;2022-12-13T03:48:15;7.60;;;6.20;;
48516;SDS011;34310;51.904;4.256;2022-12-13T03:50:48;9.48;;;6.53;;
48516;SDS011;34310;51.904;4.256;2022-12-13T03:53:16;7.82;;;6.28;;
48516;SDS011;34310;51.904;4.256;2022-12-13T03:55:58;7.63;;;6.25;;
48516;SDS011;34310;51.904;4.256;2022-12-13T03:58:27;7.43;;;6.20;;
48516;SDS011;34310;51.904;4.256;2022-12-13T04:01:05;7.85;;;6.53;;
48516;SDS011;34310;51.904;4.256;2022-12-13T04:03:35;8.13;;;6.80;;
48516;SDS011;34310;51.904;4.256;2022-12-13T04:06:04;8.60;;;6.10;;
48516;SDS011;34310;51.904;4.256;2022-12-13T04:08:32;7.95;;;6.45;;
48516;SDS011;34310;51.904;4.256;2022-12-13T04:11:01;8.75;;;7.20;;
48516;SDS011;34310;51.904;4.256;2022-12-13T04:13:47;9.43;;;7.00;;
48516;SDS011;34310;51.904;4.256;2022-12-13T04:16:14;7.88;;;6.38;;
48516;SDS011;34310;51.904;4.256;2022-12-13T04:18:42;10.18;;;7.03;;
48516;SDS011;34310;51.904;4.256;2022-12-13T04:21:09;7.80;;;6.15;;
48516;SDS011;34310;51.904;4.256;2022-12-13T04:23:36;8.70;;;7.18;;
48516;SDS011;34310;51.904;4.256;2022-12-13T04:26:04;8.13;;;7.00;;
48516;SDS011;34310;51.904;4.256;2022-12-13T04:28:31;8.15;;;6.75;;
48516;SDS011;34310;51.904;4.256;2022-12-13T04:30:58;8.40;;;6.97;;
48516;SDS011;34310;51.904;4.256;2022-12-13T04:33:26;8.45;;;6.68;;
48516;SDS011;34310;51.904;4.256;2022-12-13T04:35:53;8.93;;;6.68;;
48516;SDS011;34310;51.904;4.256;2022-12-13T04:38:20;9.13;;;7.25;;
48516;SDS011;34310;51.904;4.256;2022-12-13T04:40:48;8.80;;;7.07;;
48516;SDS011;34310;51.904;4.256;2022-12-13T04:43:15;8.52;;;7.07;;
48516;SDS011;34310;51.904;4.256;2022-12-13T04:45:42;8.23;;;7.10;;
48516;SDS011;34310;51.904;4.256;2022-12-13T04:48:10;8.10;;;7.10;;
48516;SDS011;34310;51.904;4.256;2022-12-13T04:50:37;9.05;;;7.72;;
48516;SDS011;34310;51.904;4.256;2022-12-13T04:53:04;8.50;;;7.40;;
48516;SDS011;34310;51.904;4.256;2022-12-13T04:55:31;9.57;;;6.93;;
48516;SDS011;34310;51.904;4.256;2022-12-13T04:57:59;8.75;;;7.30;;
48516;SDS011;34310;51.904;4.256;2022-12-13T05:00:26;8.70;;;6.68;;
48516;SDS011;34310;51.904;4.256;2022-12-13T05:02:53;9.60;;;7.65;;
48516;SDS011;34310;51.904;4.256;2022-12-13T05:05:21;7.50;;;6.70;;
48516;SDS011;34310;51.904;4.256;2022-12-13T05:07:48;8.70;;;7.10;;
48516;SDS011;34310;51.904;4.256;2022-12-13T05:10:15;8.52;;;7.00;;
48516;SDS011;34310;51.904;4.256;2022-12-13T05:13:02;8.15;;;6.75;;
48516;SDS011;34310;51.904;4.256;2022-12-13T05:15:30;10.13;;;7.03;;
48516;SDS011;34310;51.904;4.256;2022-12-13T05:18:05;8.07;;;6.50;;
48516;SDS011;34310;51.904;4.256;2022-12-13T05:20:36;8.70;;;7.03;;
48516;SDS011;34310;51.904;4.256;2022-12-13T05:23:04;9.25;;;7.28;;
48516;SDS011;34310;51.904;4.256;2022-12-13T05:25:32;8.45;;;6.57;;
48516;SDS011;34310;51.904;4.256;2022-12-13T05:28:02;8.60;;;6.90;;
48516;SDS011;34310;51.904;4.256;2022-12-13T05:30:50;8.90;;;6.88;;
48516;SDS011;34310;51.904;4.256;2022-12-13T05:33:18;8.23;;;7.03;;
48516;SDS011;34310;51.904;4.256;2022-12-13T05:35:45;8.48;;;6.95;;
48516;SDS011;34310;51.904;4.256;2022-12-13T05:38:13;7.35;;;6.35;;
48516;SDS011;34310;51.904;4.256;2022-12-13T05:40:41;9.25;;;7.32;;
48516;SDS011;34310;51.904;4.256;2022-12-13T05:43:09;8.52;;;7.05;;
48516;SDS011;34310;51.904;4.256;2022-12-13T05:45:47;8.05;;;6.97;;
48516;SDS011;34310;51.904;4.256;2022-12-13T05:48:15;8.43;;;7.40;;
48516;SDS011;34310;51.904;4.256;2022-12-13T05:53:35;9.35;;;7.60;;
48516;SDS011;34310;51.904;4.256;2022-12-13T05:56:02;9.80;;;7.82;;
48516;SDS011;34310;51.904;4.256;2022-12-13T05:58:30;9.48;;;7.88;;
48516;SDS011;34310;51.904;4.256;2022-12-13T06:01:08;10.98;;;8.75;;
48516;SDS011;34310;51.904;4.256;2022-12-13T06:03:38;9.30;;;7.90;;
48516;SDS011;34310;51.904;4.256;2022-12-13T06:06:07;10.25;;;8.05;;
48516;SDS011;34310;51.904;4.256;2022-12-13T06:08:35;10.10;;;8.35;;
48516;SDS011;34310;51.904;4.256;2022-12-13T06:11:04;9.20;;;7.80;;
48516;SDS011;34310;51.904;4.256;2022-12-13T06:13:37;9.93;;;8.23;;
48516;SDS011;34310;51.904;4.256;2022-12-13T06:16:09;7.93;;;7.07;;
48516;SDS011;34310;51.904;4.256;2022-12-13T06:18:49;11.18;;;8.55;;
48516;SDS011;34310;51.904;4.256;2022-12-13T06:21:26;11.20;;;8.30;;
48516;SDS011;34310;51.904;4.256;2022-12-13T06:24:08;10.27;;;7.93;;
48516;SDS011;34310;51.904;4.256;2022-12-13T06:26:36;9.68;;;8.20;;
48516;SDS011;34310;51.904;4.256;2022-12-13T06:29:03;10.45;;;8.07;;
48516;SDS011;34310;51.904;4.256;2022-12-13T06:31:30;10.48;;;8.10;;
48516;SDS011;34310;51.904;4.256;2022-12-13T06:34:01;12.02;;;8.55;;
48516;SDS011;34310;51.904;4.256;2022-12-13T06:36:40;9.38;;;8.20;;
48516;SDS011;34310;51.904;4.256;2022-12-13T06:39:07;9.32;;;7.93;;
48516;SDS011;34310;51.904;4.256;2022-12-13T06:41:35;12.23;;;8.32;;
48516;SDS011;34310;51.904;4.256;2022-12-13T06:44:02;10.00;;;7.53;;
48516;SDS011;34310;51.904;4.256;2022-12-13T06:46:30;10.10;;;8.55;;
48516;SDS011;34310;51.904;4.256;2022-12-13T06:48:58;10.07;;;8.15;;
48516;SDS011;34310;51.904;4.256;2022-12-13T06:51:25;10.70;;;8.63;;
48516;SDS011;34310;51.904;4.256;2022-12-13T06:53:58;11.38;;;8.52;;
48516;SDS011;34310;51.904;4.256;2022-12-13T06:56:29;10.00;;;7.85;;
48516;SDS011;34310;51.904;4.256;2022-12-13T06:58:58;9.77;;;7.88;;
48516;SDS011;34310;51.904;4.256;2022-12-13T07:01:27;9.93;;;8.00;;
48516;SDS011;34310;51.904;4.256;2022-12-13T07:04:03;8.93;;;7.57;;
48516;SDS011;34310;51.904;4.256;2022-12-13T07:06:51;9.77;;;7.75;;
48516;SDS011;34310;51.904;4.256;2022-12-13T07:09:18;11.02;;;8.07;;
48516;SDS011;34310;51.904;4.256;2022-12-13T07:11:46;8.10;;;7.10;;
48516;SDS011;34310;51.904;4.256;2022-12-13T07:14:17;8.45;;;7.40;;
48516;SDS011;34310;51.904;4.256;2022-12-13T07:16:45;9.88;;;8.15;;
48516;SDS011;34310;51.904;4.256;2022-12-13T07:19:12;8.82;;;7.13;;
48516;SDS011;34310;51.904;4.256;2022-12-13T07:21:49;8.23;;;7.20;;
48516;SDS011;34310;51.904;4.256;2022-12-13T07:24:17;9.65;;;7.82;;
48516;SDS011;34310;51.904;4.256;2022-12-13T07:26:44;9.18;;;7.35;;
48516;SDS011;34310;51.904;4.256;2022-12-13T07:29:12;10.38;;;7.50;;
48516;SDS011;34310;51.904;4.256;2022-12-13T07:31:48;9.23;;;7.55;;
48516;SDS011;34310;51.904;4.256;2022-12-13T07:34:15;8.68;;;7.30;;
48516;SDS011;34310;51.904;4.256;2022-12-13T07:36:42;8.82;;;7.55;;
48516;SDS011;34310;51.904;4.256;2022-12-13T07:39:10;9.23;;;6.93;;
48516;SDS011;34310;51.904;4.256;2022-12-13T07:41:37;8.32;;;6.97;;
48516;SDS011;34310;51.904;4.256;2022-12-13T07:44:04;9.88;;;7.72;;
48516;SDS011;34310;51.904;4.256;2022-12-13T07:46:31;9.73;;;7.65;;
48516;SDS011;34310;51.904;4.256;2022-12-13T07:49:02;9.40;;;7.70;;
48516;SDS011;34310;51.904;4.256;2022-12-13T07:51:33;9.85;;;7.63;;
48516;SDS011;34310;51.904;4.256;2022-12-13T07:54:01;10.05;;;7.65;;
48516;SDS011;34310;51.904;4.256;2022-12-13T07:56:32;12.40;;;8.43;;
48516;SDS011;34310;51.904;4.256;2022-12-13T07:59:00;9.18;;;7.57;;
48516;SDS011;34310;51.904;4.256;2022-12-13T08:01:27;10.10;;;7.88;;
48516;SDS011;34310;51.904;4.256;2022-12-13T08:03:56;10.15;;;8.10;;
48516;SDS011;34310;51.904;4.256;2022-12-13T08:06:23;11.27;;;8.38;;
48516;SDS011;34310;51.904;4.256;2022-12-13T08:08:54;9.80;;;8.05;;
48516;SDS011;34310;51.904;4.256;2022-12-13T08:11:22;11.27;;;8.45;;
48516;SDS011;34310;51.904;4.256;2022-12-13T08:13:49;10.65;;;8.45;;
48516;SDS011;34310;51.904;4.256;2022-12-13T08:16:18;10.30;;;7.82;;
48516;SDS011;34310;51.904;4.256;2022-12-13T08:18:54;12.43;;;8.88;;
48516;SDS011;34310;51.904;4.256;2022-12-13T08:21:32;13.73;;;9.13;;
48516;SDS011;34310;51.904;4.256;2022-12-13T08:24:28;11.88;;;8.40;;
48516;SDS011;34310;51.904;4.256;2022-12-13T08:29:28;11.73;;;8.52;;
48516;SDS011;34310;51.904;4.256;2022-12-13T08:32:01;10.50;;;8.00;;
48516;SDS011;34310;51.904;4.256;2022-12-13T08:34:30;13.65;;;8.30;;
48516;SDS011;34310;51.904;4.256;2022-12-13T08:36:57;11.73;;;7.97;;
48516;SDS011;34310;51.904;4.256;2022-12-13T08:39:32;11.48;;;7.85;;
48516;SDS011;34310;51.904;4.256;2022-12-13T08:42:11;11.80;;;8.70;;
48516;SDS011;34310;51.904;4.256;2022-12-13T08:44:48;11.65;;;8.68;;
48516;SDS011;34310;51.904;4.256;2022-12-13T08:47:20;11.02;;;8.02;;
48516;SDS011;34310;51.904;4.256;2022-12-13T08:49:55;12.75;;;8.20;;
48516;SDS011;34310;51.904;4.256;2022-12-13T08:52:33;12.95;;;9.23;;
48516;SDS011;34310;51.904;4.256;2022-12-13T08:55:05;11.65;;;8.65;;
48516;SDS011;34310;51.904;4.256;2022-12-13T08:57:34;12.82;;;9.80;;
48516;SDS011;34310;51.904;4.256;2022-12-13T09:00:05;14.02;;;9.90;;
48516;SDS011;34310;51.904;4.256;2022-12-13T09:02:34;13.35;;;9.73;;
48516;SDS011;34310;51.904;4.256;2022-12-13T09:05:04;13.93;;;9.43;;
48516;SDS011;34310;51.904;4.256;2022-12-13T09:07:33;14.32;;;9.60;;
48516;SDS011;34310;51.904;4.256;2022-12-13T09:10:02;15.40;;;9.68;;
48516;SDS011;34310;51.904;4.256;2022-12-13T09:12:52;14.48;;;9.95;;
48516;SDS011;34310;51.904;4.256;2022-12-13T09:15:27;13.77;;;10.15;;
48516;SDS011;34310;51.904;4.256;2022-12-13T09:18:00;12.20;;;9.27;;
48516;SDS011;34310;51.904;4.256;2022-12-13T09:20:30;15.13;;;9.68;;
48516;SDS011;34310;51.904;4.256;2022-12-13T09:23:07;13.23;;;9.23;;
48516;SDS011;34310;51.904;4.256;2022-12-13T09:25:51;13.48;;;9.60;;
48516;SDS011;34310;51.904;4.256;2022-12-13T09:28:20;12.65;;;9.48;;
48516;SDS011;34310;51.904;4.256;2022-12-13T09:30:48;11.30;;;8.95;;
48516;SDS011;34310;51.904;4.256;2022-12-13T09:33:15;11.30;;;9.55;;
48516;SDS011;34310;51.904;4.256;2022-12-13T09:35:56;11.45;;;9.00;;
48516;SDS011;34310;51.904;4.256;2022-12-13T09:38:27;11.85;;;9.27;;
48516;SDS011;34310;51.904;4.256;2022-12-13T09:40:54;13.63;;;9.52;;
48516;SDS011;34310;51.904;4.256;2022-12-13T09:43:27;13.05;;;9.80;;
48516;SDS011;34310;51.904;4.256;2022-12-13T09:46:10;12.90;;;9.75;;
48516;SDS011;34310;51.904;4.256;2022-12-13T09:49:01;11.65;;;9.73;;
48516;SDS011;34310;51.904;4.256;2022-12-13T09:51:38;12.38;;;9.55;;
48516;SDS011;34310;51.904;4.256;2022-12-13T09:54:17;12.50;;;9.60;;
48516;SDS011;34310;51.904;4.256;2022-12-13T09:56:47;13.02;;;9.25;;
48516;SDS011;34310;51.904;4.256;2022-12-13T09:59:26;14.93;;;9.73;;
48516;SDS011;34310;51.904;4.256;2022-12-13T10:05:16;13.38;;;9.88;;
48516;SDS011;34310;51.904;4.256;2022-12-13T10:08:05;13.80;;;9.77;;
48516;SDS011;34310;51.904;4.256;2022-12-13T10:10:36;12.27;;;9.45;;
48516;SDS011;34310;51.904;4.256;2022-12-13T10:13:20;14.15;;;10.18;;
48516;SDS011;34310;51.904;4.256;2022-12-13T10:15:57;12.30;;;9.55;;
48516;SDS011;34310;51.904;4.256;2022-12-13T10:18:32;14.77;;;9.40;;
48516;SDS011;34310;51.904;4.256;2022-12-13T10:21:09;11.85;;;9.18;;
48516;SDS011;34310;51.904;4.256;2022-12-13T10:23:46;14.40;;;9.35;;
48516;SDS011;34310;51.904;4.256;2022-12-13T10:26:36;14.20;;;9.95;;
48516;SDS011;34310;51.904;4.256;2022-12-13T10:29:05;12.70;;;8.38;;
48516;SDS011;34310;51.904;4.256;2022-12-13T10:31:37;11.85;;;8.80;;
48516;SDS011;34310;51.904;4.256;2022-12-13T10:34:19;14.13;;;9.35;;
48516;SDS011;34310;51.904;4.256;2022-12-13T10:36:49;13.40;;;8.52;;
48516;SDS011;34310;51.904;4.256;2022-12-13T10:39:18;13.80;;;8.60;;
48516;SDS011;34310;51.904;4.256;2022-12-13T10:42:05;12.90;;;9.27;;
48516;SDS011;34310;51.904;4.256;2022-12-13T10:44:48;13.75;;;8.88;;
48516;SDS011;34310;51.904;4.256;2022-12-13T10:47:40;13.02;;;8.90;;
48516;SDS011;34310;51.904;4.256;2022-12-13T10:50:20;15.27;;;8.27;;
48516;SDS011;34310;51.904;4.256;2022-12-13T10:52:53;14.15;;;8.73;;
48516;SDS011;34310;51.904;4.256;2022-12-13T10:55:40;14.00;;;8.93;;
48516;SDS011;34310;51.904;4.256;2022-12-13T10:58:15;13.63;;;8.50;;
48516;SDS011;34310;51.904;4.256;2022-12-13T11:00:45;18.08;;;8.15;;
48516;SDS011;34310;51.904;4.256;2022-12-13T11:06:04;11.82;;;7.78;;
48516;SDS011;34310;51.904;4.256;2022-12-13T11:08:32;9.88;;;7.18;;
48516;SDS011;34310;51.904;4.256;2022-12-13T11:11:00;11.27;;;7.55;;
48516;SDS011;34310;51.904;4.256;2022-12-13T11:13:34;11.13;;;7.88;;
48516;SDS011;34310;51.904;4.256;2022-12-13T11:16:31;14.18;;;7.75;;
48516;SDS011;34310;51.904;4.256;2022-12-13T11:19:03;8.55;;;7.18;;
48516;SDS011;34310;51.904;4.256;2022-12-13T11:21:45;11.57;;;8.00;;
48516;SDS011;34310;51.904;4.256;2022-12-13T11:24:25;9.95;;;7.32;;
48516;SDS011;34310;51.904;4.256;2022-12-13T11:27:13;9.20;;;7.40;;
48516;SDS011;34310;51.904;4.256;2022-12-13T11:29:50;10.48;;;7.10;;
48516;SDS011;34310;51.904;4.256;2022-12-13T11:32:51;8.65;;;6.63;;
48516;SDS011;34310;51.904;4.256;2022-12-13T11:35:29;8.88;;;6.63;;
48516;SDS011;34310;51.904;4.256;2022-12-13T11:40:55;8.32;;;6.47;;
48516;SDS011;34310;51.904;4.256;2022-12-13T11:43:38;8.48;;;6.10;;
48516;SDS011;34310;51.904;4.256;2022-12-13T11:46:13;11.40;;;6.25;;
48516;SDS011;34310;51.904;4.256;2022-12-13T11:49:08;9.07;;;6.90;;
48516;SDS011;34310;51.904;4.256;2022-12-13T11:51:49;7.63;;;5.90;;
48516;SDS011;34310;51.904;4.256;2022-12-13T11:57:36;7.32;;;6.03;;
48516;SDS011;34310;51.904;4.256;2022-12-13T12:03:05;7.75;;;5.90;;
48516;SDS011;34310;51.904;4.256;2022-12-13T12:06:00;8.13;;;6.00;;
48516;SDS011;34310;51.904;4.256;2022-12-13T12:09:00;8.00;;;5.63;;
48516;SDS011;34310;51.904;4.256;2022-12-13T12:14:07;8.73;;;5.40;;
48516;SDS011;34310;51.904;4.256;2022-12-13T12:16:46;7.72;;;5.90;;
48516;SDS011;34310;51.904;4.256;2022-12-13T12:19:18;5.97;;;5.30;;
48516;SDS011;34310;51.904;4.256;2022-12-13T12:27:25;7.07;;;5.90;;
48516;SDS011;34310;51.904;4.256;2022-12-13T12:33:23;11.43;;;7.20;;
48516;SDS011;34310;51.904;4.256;2022-12-13T12:36:57;11.82;;;7.80;;
48516;SDS011;34310;51.904;4.256;2022-12-13T12:45:22;9.25;;;7.80;;
48516;SDS011;34310;51.904;4.256;2022-12-13T12:48:27;11.00;;;8.18;;
48516;SDS011;34310;51.904;4.256;2022-12-13T12:51:38;12.35;;;7.95;;
48516;SDS011;34310;51.904;4.256;2022-12-13T13:05:28;16.83;;;10.25;;
48516;SDS011;34310;51.904;4.256;2022-12-13T13:10:45;16.10;;;9.15;;
48516;SDS011;34310;51.904;4.256;2022-12-13T13:13:34;11.18;;;8.90;;
48516;SDS011;34310;51.904;4.256;2022-12-13T13:16:31;15.77;;;9.90;;
48516;SDS011;34310;51.904;4.256;2022-12-13T13:19:04;13.07;;;9.35;;
48516;SDS011;34310;51.904;4.256;2022-12-13T13:21:40;10.98;;;9.05;;
48516;SDS011;34310;51.904;4.256;2022-12-13T13:24:25;13.32;;;8.35;;
48516;SDS011;34310;51.904;4.256;2022-12-13T13:26:58;12.52;;;9.25;;
48516;SDS011;34310;51.904;4.256;2022-12-13T13:30:03;12.70;;;8.88;;
48516;SDS011;34310;51.904;4.256;2022-12-13T13:32:32;9.98;;;8.02;;
48516;SDS011;34310;51.904;4.256;2022-12-13T13:40:41;12.40;;;8.70;;
48516;SDS011;34310;51.904;4.256;2022-12-13T13:43:12;13.35;;;8.73;;
48516;SDS011;34310;51.904;4.256;2022-12-13T13:59:35;18.75;;;9.88;;
48516;SDS011;34310;51.904;4.256;2022-12-13T14:02:28;14.10;;;9.13;;
48516;SDS011;34310;51.904;4.256;2022-12-13T14:28:17;11.93;;;8.95;;
48516;SDS011;34310;51.904;4.256;2022-12-13T14:30:49;17.77;;;9.40;;
48516;SDS011;34310;51.904;4.256;2022-12-13T14:33:23;16.95;;;9.52;;
48516;SDS011;34310;51.904;4.256;2022-12-13T14:35:53;12.77;;;9.70;;
48516;SDS011;34310;51.904;4.256;2022-12-13T14:38:23;14.70;;;10.10;;
48516;SDS011;34310;51.904;4.256;2022-12-13T14:40:54;12.95;;;9.20;;
48516;SDS011;34310;51.904;4.256;2022-12-13T14:43:24;15.43;;;10.43;;
48516;SDS011;34310;51.904;4.256;2022-12-13T14:45:54;11.95;;;10.10;;
48516;SDS011;34310;51.904;4.256;2022-12-13T14:48:24;16.20;;;9.80;;
48516;SDS011;34310;51.904;4.256;2022-12-13T14:51:01;13.50;;;10.32;;
48516;SDS011;34310;51.904;4.256;2022-12-13T14:53:33;12.30;;;9.90;;
48516;SDS011;34310;51.904;4.256;2022-12-13T14:56:10;12.80;;;10.20;;
48516;SDS011;34310;51.904;4.256;2022-12-13T14:59:01;13.68;;;10.27;;
48516;SDS011;34310;51.904;4.256;2022-12-13T15:01:36;12.60;;;9.75;;
48516;SDS011;34310;51.904;4.256;2022-12-13T15:06:47;14.20;;;10.43;;
48516;SDS011;34310;51.904;4.256;2022-12-13T15:09:29;20.90;;;11.45;;
48516;SDS011;34310;51.904;4.256;2022-12-13T15:12:00;15.23;;;10.43;;
48516;SDS011;34310;51.904;4.256;2022-12-13T15:14:52;17.73;;;10.50;;
48516;SDS011;34310;51.904;4.256;2022-12-13T15:17:32;13.85;;;10.80;;
48516;SDS011;34310;51.904;4.256;2022-12-13T15:20:23;16.33;;;10.75;;
48516;SDS011;34310;51.904;4.256;2022-12-13T15:23:37;15.88;;;10.95;;
48516;SDS011;34310;51.904;4.256;2022-12-13T15:25:57;14.90;;;10.38;;
48516;SDS011;34310;51.904;4.256;2022-12-13T15:28:59;13.00;;;11.25;;
48516;SDS011;34310;51.904;4.256;2022-12-13T15:31:36;12.93;;;11.05;;
48516;SDS011;34310;51.904;4.256;2022-12-13T15:37:00;15.27;;;11.88;;
48516;SDS011;34310;51.904;4.256;2022-12-13T15:39:34;14.60;;;11.10;;
48516;SDS011;34310;51.904;4.256;2022-12-13T15:42:21;14.50;;;11.65;;
48516;SDS011;34310;51.904;4.256;2022-12-13T15:44:57;15.00;;;11.35;;
48516;SDS011;34310;51.904;4.256;2022-12-13T15:47:27;16.20;;;11.20;;
48516;SDS011;34310;51.904;4.256;2022-12-13T15:50:00;14.82;;;11.35;;
48516;SDS011;34310;51.904;4.256;2022-12-13T15:52:31;15.37;;;11.23;;
48516;SDS011;34310;51.904;4.256;2022-12-13T15:57:34;15.32;;;11.48;;
48516;SDS011;34310;51.904;4.256;2022-12-13T16:05:35;15.30;;;12.13;;
48516;SDS011;34310;51.904;4.256;2022-12-13T16:08:17;14.18;;;11.82;;
48516;SDS011;34310;51.904;4.256;2022-12-13T16:10:50;16.58;;;12.48;;
48516;SDS011;34310;51.904;4.256;2022-12-13T16:13:23;15.30;;;11.85;;
48516;SDS011;34310;51.904;4.256;2022-12-13T16:15:54;16.23;;;11.85;;
48516;SDS011;34310;51.904;4.256;2022-12-13T16:18:43;14.45;;;11.55;;
48516;SDS011;34310;51.904;4.256;2022-12-13T16:21:16;15.18;;;12.45;;
48516;SDS011;34310;51.904;4.256;2022-12-13T16:23:43;17.30;;;12.48;;
48516;SDS011;34310;51.904;4.256;2022-12-13T16:26:14;20.10;;;13.10;;
48516;SDS011;34310;51.904;4.256;2022-12-13T16:28:48;19.35;;;13.13;;
48516;SDS011;34310;51.904;4.256;2022-12-13T16:36:17;17.13;;;12.40;;
48516;SDS011;34310;51.904;4.256;2022-12-13T16:38:45;20.33;;;12.77;;
48516;SDS011;34310;51.904;4.256;2022-12-13T16:41:12;19.35;;;13.80;;
48516;SDS011;34310;51.904;4.256;2022-12-13T16:46:21;19.85;;;14.48;;
48516;SDS011;34310;51.904;4.256;2022-12-13T16:49:19;18.38;;;13.55;;
48516;SDS011;34310;51.904;4.256;2022-12-13T16:51:51;19.52;;;14.10;;
48516;SDS011;34310;51.904;4.256;2022-12-13T16:54:18;17.20;;;13.63;;
48516;SDS011;34310;51.904;4.256;2022-12-13T16:56:47;20.92;;;13.73;;
48516;SDS011;34310;51.904;4.256;2022-12-13T16:59:16;16.77;;;13.73;;
48516;SDS011;34310;51.904;4.256;2022-12-13T17:01:45;17.52;;;13.77;;
48516;SDS011;34310;51.904;4.256;2022-12-13T17:04:15;21.02;;;14.55;;
48516;SDS011;34310;51.904;4.256;2022-12-13T17:06:47;16.55;;;13.57;;
48516;SDS011;34310;51.904;4.256;2022-12-13T17:09:15;21.42;;;15.18;;
48516;SDS011;34310;51.904;4.256;2022-12-13T17:11:43;18.40;;;14.70;;
48516;SDS011;34310;51.904;4.256;2022-12-13T17:14:11;21.00;;;14.63;;
48516;SDS011;34310;51.904;4.256;2022-12-13T17:16:38;18.55;;;14.88;;
48516;SDS011;34310;51.904;4.256;2022-12-13T17:19:07;18.05;;;14.40;;
48516;SDS011;34310;51.904;4.256;2022-12-13T17:21:36;17.60;;;14.55;;
48516;SDS011;34310;51.904;4.256;2022-12-13T17:24:03;19.05;;;15.13;;
48516;SDS011;34310;51.904;4.256;2022-12-13T17:26:31;19.88;;;15.07;;
48516;SDS011;34310;51.904;4.256;2022-12-13T17:28:58;18.15;;;14.80;;
48516;SDS011;34310;51.904;4.256;2022-12-13T17:31:25;17.95;;;14.30;;
48516;SDS011;34310;51.904;4.256;2022-12-13T17:34:00;20.15;;;14.73;;
48516;SDS011;34310;51.904;4.256;2022-12-13T17:36:28;18.13;;;15.00;;
48516;SDS011;34310;51.904;4.256;2022-12-13T17:38:59;21.05;;;16.70;;
48516;SDS011;34310;51.904;4.256;2022-12-13T17:41:28;21.58;;;16.27;;
48516;SDS011;34310;51.904;4.256;2022-12-13T17:43:58;21.40;;;17.08;;
48516;SDS011;34310;51.904;4.256;2022-12-13T17:46:26;24.58;;;17.42;;
48516;SDS011;34310;51.904;4.256;2022-12-13T17:48:53;35.20;;;17.30;;